Time;durP1;ratioP1;P1;durP2;ratioP2;P2;SDS_P1;SDS_P2;PMS_P1;PMS_P2;Temp;Humidity;BMP_temperature;BMP_pressure;BME280_temperature;BME280_humidity;BME280_pressure;Samples;Min_cycle;Max_cycle;Signal;HPM_P1;HPM_P2
2021/10/18 00:02:20;;;;;;;0.70;0.70;;;6.80;99.90;;;;;;5092218;28;20709;-72
2021/10/18 00:04:46;;;;;;;0.70;0.67;;;7.00;99.90;;;;;;5093222;28;20390;-73
2021/10/18 00:07:11;;;;;;;1.00;0.70;;;6.90;99.90;;;;;;5091563;28;20378;-72
2021/10/18 00:09:37;;;;;;;1.40;0.70;;;6.80;99.90;;;;;;5092635;28;20439;-72
2021/10/18 00:12:03;;;;;;;0.70;0.40;;;6.80;99.90;;;;;;5092750;28;20375;-72
2021/10/18 00:14:29;;;;;;;0.80;0.80;;;6.80;99.90;;;;;;5091635;28;20382;-72
2021/10/18 00:16:55;;;;;;;0.40;0.40;;;6.80;99.90;;;;;;5092593;28;20869;-72
2021/10/18 00:19:21;;;;;;;0.40;0.20;;;6.70;99.90;;;;;;5092274;28;20421;-73
2021/10/18 00:21:46;;;;;;;0.60;0.50;;;6.60;99.90;;;;;;5092738;28;20381;-72
2021/10/18 00:24:12;;;;;;;0.40;0.20;;;6.70;99.90;;;;;;5092178;28;20469;-72
2021/10/18 00:26:38;;;;;;;0.60;0.60;;;6.60;99.90;;;;;;5090928;28;20382;-72
2021/10/18 00:29:03;;;;;;;0.40;0.20;;;6.50;99.90;;;;;;5086005;28;20391;-72
2021/10/18 00:31:29;;;;;;;0.80;0.80;;;6.40;99.90;;;;;;5077043;28;20783;-72
2021/10/18 00:33:55;;;;;;;0.57;0.47;;;6.40;99.90;;;;;;5083369;28;20524;-72
2021/10/18 00:36:21;;;;;;;0.40;0.28;;;6.30;99.90;;;;;;5091759;28;20374;-72
2021/10/18 00:38:46;;;;;;;0.40;0.20;;;5.90;99.90;;;;;;5090306;28;20406;-72
2021/10/18 00:41:12;;;;;;;0.40;0.40;;;5.80;99.90;;;;;;5071413;28;21048;-71
2021/10/18 00:43:43;;;;;;;0.40;0.25;;;5.90;99.90;;;;;;5071753;28;20822;-71
2021/10/18 00:46:08;;;;;;;0.50;0.45;;;6.00;99.90;;;;;;5085310;28;20526;-71
2021/10/18 00:48:34;;;;;;;0.40;0.20;;;6.00;99.90;;;;;;5091367;28;20469;-72
2021/10/18 00:51:00;;;;;;;0.50;0.43;;;5.90;99.90;;;;;;5091717;28;20378;-71
2021/10/18 00:53:27;;;;;;;0.40;0.20;;;6.00;99.90;;;;;;5091261;28;20404;-72
2021/10/18 00:55:54;;;;;;;0.52;0.52;;;5.90;99.90;;;;;;5091979;28;20374;-71
2021/10/18 00:58:21;;;;;;;0.60;0.60;;;5.80;99.90;;;;;;5091036;28;20412;-71
2021/10/18 01:00:47;;;;;;;0.40;0.20;;;5.80;99.90;;;;;;5092170;28;20381;-71
2021/10/18 01:03:14;;;;;;;1.00;0.70;;;5.90;99.90;;;;;;5090843;28;20463;-71
2021/10/18 01:05:41;;;;;;;0.40;0.20;;;6.00;99.90;;;;;;5091773;28;20461;-71
2021/10/18 01:08:09;;;;;;;0.40;0.20;;;6.10;99.90;;;;;;5091030;28;20382;-71
2021/10/18 01:10:35;;;;;;;0.40;0.20;;;6.10;99.90;;;;;;5090336;28;20465;-71
2021/10/18 01:13:02;;;;;;;0.40;0.20;;;6.20;99.90;;;;;;5091501;28;20871;-71
2021/10/18 01:15:28;;;;;;;0.40;0.20;;;6.10;99.90;;;;;;5091203;28;20731;-71
2021/10/18 01:17:53;;;;;;;0.40;0.20;;;6.20;99.90;;;;;;5091360;28;20478;-71
2021/10/18 01:20:28;;;;;;;0.50;0.50;;;6.40;99.90;;;;;;5090987;28;20465;-71
2021/10/18 01:22:53;;;;;;;0.40;0.20;;;6.50;99.90;;;;;;5091510;28;20382;-71
2021/10/18 01:25:19;;;;;;;0.40;0.20;;;6.60;99.90;;;;;;5089331;28;20374;-71
2021/10/18 01:27:44;;;;;;;0.40;0.20;;;6.70;99.90;;;;;;5091374;28;20385;-71
2021/10/18 01:30:10;;;;;;;0.40;0.20;;;6.80;99.90;;;;;;5091175;28;20374;-71
2021/10/18 01:32:36;;;;;;;0.40;0.20;;;6.70;99.90;;;;;;5090619;28;20393;-71
2021/10/18 01:35:05;;;;;;;0.40;0.20;;;6.70;99.90;;;;;;5091297;28;20738;-71
2021/10/18 01:37:31;;;;;;;0.47;0.47;;;6.70;99.90;;;;;;5090486;28;20381;-71
2021/10/18 01:39:56;;;;;;;0.40;0.30;;;6.70;99.90;;;;;;5091516;28;20732;-71
2021/10/18 01:42:22;;;;;;;0.40;0.40;;;6.70;99.90;;;;;;5091061;28;20913;-71
2021/10/18 01:44:47;;;;;;;0.60;0.53;;;6.60;99.90;;;;;;5091235;28;20788;-71
2021/10/18 01:47:13;;;;;;;0.40;0.30;;;6.70;99.90;;;;;;5091176;28;20393;-71
2021/10/18 01:49:39;;;;;;;0.40;0.20;;;6.70;99.90;;;;;;5090562;28;20431;-71
2021/10/18 01:52:04;;;;;;;0.40;0.20;;;6.70;99.90;;;;;;5091112;28;20402;-72
2021/10/18 01:54:30;;;;;;;0.40;0.30;;;6.70;99.90;;;;;;5090709;28;20494;-71
2021/10/18 01:56:56;;;;;;;1.50;0.90;;;6.90;99.90;;;;;;5090860;28;20378;-71
2021/10/18 01:59:21;;;;;;;0.60;0.60;;;6.90;99.90;;;;;;5090424;28;20427;-71
2021/10/18 02:01:47;;;;;;;0.40;0.30;;;7.00;99.90;;;;;;5091137;28;20381;-71
2021/10/18 02:04:12;;;;;;;0.68;0.57;;;7.00;99.90;;;;;;5090981;28;20381;-71
2021/10/18 02:06:38;;;;;;;0.70;0.70;;;7.10;99.90;;;;;;5090137;28;20381;-71
2021/10/18 02:09:04;;;;;;;0.40;0.40;;;7.00;99.90;;;;;;5090905;28;20455;-71
2021/10/18 02:11:29;;;;;;;1.50;0.80;;;6.80;99.90;;;;;;5090345;28;20386;-71
2021/10/18 02:13:55;;;;;;;0.40;0.30;;;6.70;99.90;;;;;;5090609;28;20855;-71
2021/10/18 02:16:21;;;;;;;0.40;0.20;;;6.50;99.90;;;;;;5090391;28;20377;-71
2021/10/18 02:18:47;;;;;;;0.40;0.30;;;6.50;99.90;;;;;;5090900;28;20913;-71
2021/10/18 02:21:13;;;;;;;0.40;0.40;;;6.60;99.90;;;;;;5090868;28;20453;-72
2021/10/18 02:23:38;;;;;;;0.40;0.40;;;6.60;99.90;;;;;;5090033;28;20873;-71
2021/10/18 02:26:04;;;;;;;0.40;0.40;;;6.40;99.90;;;;;;5090880;28;20374;-71
2021/10/18 02:28:30;;;;;;;0.40;0.20;;;6.30;99.90;;;;;;5088895;28;20784;-71
2021/10/18 02:30:56;;;;;;;0.70;0.70;;;6.30;99.90;;;;;;5081371;28;20479;-71
2021/10/18 02:33:21;;;;;;;0.40;0.30;;;6.40;99.90;;;;;;5069893;28;20391;-71
2021/10/18 02:35:47;;;;;;;0.40;0.30;;;6.40;99.90;;;;;;5088597;28;20389;-71
2021/10/18 02:38:13;;;;;;;0.40;0.40;;;6.20;99.90;;;;;;5093573;28;20894;-71
2021/10/18 02:40:39;;;;;;;0.40;0.20;;;6.10;99.90;;;;;;5085713;28;20841;-71
2021/10/18 02:43:04;;;;;;;0.60;0.50;;;6.30;99.90;;;;;;5074275;28;20376;-71
2021/10/18 02:45:30;;;;;;;1.70;0.80;;;6.30;99.90;;;;;;5081694;28;20378;-71
2021/10/18 02:47:56;;;;;;;0.50;0.40;;;6.30;99.90;;;;;;5094482;28;20783;-71
2021/10/18 02:50:21;;;;;;;0.40;0.20;;;6.30;99.90;;;;;;5093906;28;20382;-71
2021/10/18 02:52:47;;;;;;;0.40;0.20;;;6.10;99.90;;;;;;5094156;28;20405;-71
2021/10/18 02:55:12;;;;;;;0.40;0.20;;;6.10;99.90;;;;;;5095044;28;20385;-71
2021/10/18 02:57:38;;;;;;;0.50;0.40;;;6.10;99.90;;;;;;5093682;28;20377;-71
2021/10/18 03:00:05;;;;;;;0.40;0.30;;;6.10;99.90;;;;;;5094219;28;20414;-71
2021/10/18 03:02:31;;;;;;;0.40;0.30;;;6.30;99.90;;;;;;5093709;28;20455;-71
2021/10/18 03:04:56;;;;;;;0.40;0.30;;;5.90;99.90;;;;;;5094182;28;20378;-71
2021/10/18 03:07:22;;;;;;;0.60;0.50;;;6.00;99.90;;;;;;5093973;28;20818;-71
2021/10/18 03:09:48;;;;;;;0.40;0.30;;;6.10;99.90;;;;;;5093841;28;20382;-71
2021/10/18 03:12:14;;;;;;;0.40;0.20;;;6.10;99.90;;;;;;5092687;28;20858;-71
2021/10/18 03:14:39;;;;;;;0.40;0.20;;;6.10;99.90;;;;;;5092233;28;20400;-71
2021/10/18 03:17:05;;;;;;;0.80;0.70;;;6.00;99.90;;;;;;5094072;28;20374;-72
2021/10/18 03:19:30;;;;;;;0.40;0.30;;;5.90;99.90;;;;;;5093377;28;20900;-71
2021/10/18 03:21:56;;;;;;;0.40;0.20;;;5.90;99.90;;;;;;5094248;28;20842;-71
2021/10/18 03:24:22;;;;;;;0.40;0.30;;;5.90;99.90;;;;;;5093366;28;20378;-71
2021/10/18 03:26:47;;;;;;;0.40;0.40;;;5.90;99.90;;;;;;5094083;28;20838;-71
2021/10/18 03:29:13;;;;;;;0.40;0.20;;;5.90;99.90;;;;;;5094301;28;20419;-71
2021/10/18 03:31:39;;;;;;;0.40;0.20;;;5.90;99.90;;;;;;5093082;28;20378;-71
2021/10/18 03:34:05;;;;;;;0.40;0.20;;;6.00;99.90;;;;;;5093487;28;20384;-71
2021/10/18 03:36:31;;;;;;;0.40;0.30;;;5.80;99.90;;;;;;5093222;28;20477;-71
2021/10/18 03:38:56;;;;;;;0.40;0.20;;;5.90;99.90;;;;;;5093389;28;20497;-71
2021/10/18 03:41:22;;;;;;;0.40;0.30;;;6.00;99.90;;;;;;5092843;28;20382;-71
2021/10/18 03:43:48;;;;;;;0.40;0.40;;;5.90;99.90;;;;;;5093617;28;20850;-71
2021/10/18 03:46:13;;;;;;;1.20;1.20;;;5.80;99.90;;;;;;5093348;28;20683;-71
2021/10/18 03:48:39;;;;;;;0.40;0.20;;;5.70;99.90;;;;;;5092052;28;20711;-71
2021/10/18 03:51:05;;;;;;;0.40;0.20;;;5.70;99.90;;;;;;5093392;28;20880;-71
2021/10/18 03:53:30;;;;;;;0.40;0.20;;;5.80;99.90;;;;;;5093168;28;20459;-71
2021/10/18 03:55:56;;;;;;;0.40;0.20;;;5.90;99.90;;;;;;5093489;28;20381;-71
2021/10/18 03:58:22;;;;;;;0.40;0.30;;;5.80;99.90;;;;;;5092986;28;20893;-71
2021/10/18 04:00:48;;;;;;;0.40;0.20;;;5.90;99.90;;;;;;5093547;28;20370;-71
2021/10/18 04:03:13;;;;;;;0.40;0.30;;;6.10;99.90;;;;;;5093427;28;20787;-71
2021/10/18 04:05:40;;;;;;;1.00;0.70;;;6.10;99.90;;;;;;5092811;28;20382;-71
2021/10/18 04:08:05;;;;;;;0.40;0.20;;;6.10;99.90;;;;;;5093162;28;20455;-71
2021/10/18 04:10:34;;;;;;;0.40;0.20;;;6.00;99.90;;;;;;5092623;28;20862;-71
2021/10/18 04:13:01;;;;;;;0.40;0.40;;;5.90;99.90;;;;;;5092931;28;20535;-71
2021/10/18 04:15:26;;;;;;;0.50;0.40;;;5.80;99.90;;;;;;5092339;28;20473;-71
2021/10/18 04:17:52;;;;;;;0.40;0.30;;;6.10;99.90;;;;;;5092965;28;20457;-72
2021/10/18 04:20:18;;;;;;;0.40;0.20;;;6.10;99.90;;;;;;5093064;28;20436;-72
2021/10/18 04:22:46;;;;;;;0.40;0.20;;;6.20;99.90;;;;;;5092488;28;20386;-71
2021/10/18 04:25:13;;;;;;;0.40;0.20;;;6.10;99.90;;;;;;5092728;28;20381;-71
2021/10/18 04:27:39;;;;;;;0.50;0.50;;;5.90;99.90;;;;;;5092087;28;20378;-72
2021/10/18 04:30:05;;;;;;;0.40;0.30;;;6.00;99.90;;;;;;5080123;28;20902;-72
2021/10/18 04:32:31;;;;;;;0.77;0.77;;;6.10;99.90;;;;;;5074035;28;20404;-72
2021/10/18 04:34:56;;;;;;;1.00;0.80;;;6.10;99.90;;;;;;5072283;28;20389;-72
2021/10/18 04:37:22;;;;;;;0.40;0.20;;;6.10;99.90;;;;;;5072614;28;20384;-72
2021/10/18 04:39:48;;;;;;;0.40;0.30;;;6.10;99.90;;;;;;5071448;28;20408;-72
2021/10/18 04:42:13;;;;;;;0.40;0.20;;;6.00;99.90;;;;;;5072348;28;20732;-72
2021/10/18 04:44:39;;;;;;;0.40;0.20;;;5.90;99.90;;;;;;5071406;28;20774;-72
2021/10/18 04:47:05;;;;;;;0.40;0.20;;;5.70;99.90;;;;;;5072496;28;20379;-71
2021/10/18 04:49:31;;;;;;;0.40;0.28;;;5.80;99.90;;;;;;5071588;28;20445;-71
2021/10/18 04:51:56;;;;;;;0.40;0.20;;;5.60;99.90;;;;;;5072213;28;20402;-72
2021/10/18 04:54:22;;;;;;;0.40;0.20;;;5.60;99.90;;;;;;5071863;28;20462;-72
2021/10/18 04:56:47;;;;;;;0.40;0.20;;;5.70;99.90;;;;;;5071596;28;20403;-72
2021/10/18 04:59:13;;;;;;;0.40;0.30;;;5.60;99.90;;;;;;5072146;28;20415;-72
2021/10/18 05:01:39;;;;;;;0.40;0.20;;;5.70;99.90;;;;;;5070020;28;20372;-73
2021/10/18 05:04:04;;;;;;;0.40;0.20;;;5.70;99.90;;;;;;5071983;28;20736;-72
2021/10/18 05:06:30;;;;;;;0.40;0.30;;;5.80;99.90;;;;;;5071046;28;20388;-72
2021/10/18 05:08:55;;;;;;;1.40;0.77;;;5.90;99.90;;;;;;5071611;28;20388;-72
2021/10/18 05:11:21;;;;;;;0.40;0.20;;;5.80;99.90;;;;;;5071943;28;20387;-72
2021/10/18 05:13:47;;;;;;;0.40;0.20;;;5.80;99.90;;;;;;5071280;28;20745;-73
2021/10/18 05:16:13;;;;;;;0.40;0.20;;;5.90;99.90;;;;;;5071521;28;20392;-72
2021/10/18 05:18:38;;;;;;;0.40;0.20;;;5.80;99.90;;;;;;5070791;28;20422;-72
2021/10/18 05:21:06;;;;;;;0.40;0.20;;;5.80;99.90;;;;;;5071413;28;20802;-72
2021/10/18 05:23:32;;;;;;;0.80;0.80;;;5.60;99.90;;;;;;5070789;28;20380;-72
2021/10/18 05:25:58;;;;;;;0.40;0.20;;;5.70;99.90;;;;;;5071771;28;20384;-72
2021/10/18 05:28:24;;;;;;;0.40;0.30;;;5.20;99.90;;;;;;5071299;28;20395;-72
2021/10/18 05:30:50;;;;;;;0.40;0.20;;;5.00;99.90;;;;;;5071045;28;20467;-72
2021/10/18 05:33:16;;;;;;;0.50;0.50;;;4.90;99.90;;;;;;5071117;28;20383;-72
2021/10/18 05:35:41;;;;;;;0.40;0.30;;;5.00;99.90;;;;;;5070393;28;20387;-72
2021/10/18 05:38:07;;;;;;;0.40;0.20;;;5.30;99.90;;;;;;5071116;28;20407;-72
2021/10/18 05:40:32;;;;;;;0.40;0.20;;;5.20;99.90;;;;;;5070540;28;20495;-72
2021/10/18 05:42:58;;;;;;;0.40;0.28;;;5.40;99.90;;;;;;5070264;28;20379;-72
2021/10/18 05:45:24;;;;;;;0.40;0.20;;;5.00;99.90;;;;;;5070872;28;20376;-71
2021/10/18 05:48:03;;;;;;;0.40;0.20;;;5.00;99.90;;;;;;5070243;28;20387;-71
2021/10/18 05:50:39;;;;;;;0.40;0.20;;;4.90;99.90;;;;;;5070333;28;20465;-72
2021/10/18 05:53:05;;;;;;;0.40;0.20;;;4.80;99.90;;;;;;5070869;28;21011;-72
2021/10/18 05:55:31;;;;;;;0.40;0.20;;;4.80;99.90;;;;;;5068983;28;20390;-72
2021/10/18 05:58:05;;;;;;;0.40;0.20;;;4.80;99.90;;;;;;5070903;28;20466;-71
2021/10/18 06:00:44;;;;;;;0.50;0.50;;;4.90;99.90;;;;;;5070645;28;20378;-71
2021/10/18 06:03:11;;;;;;;0.40;0.20;;;4.80;99.90;;;;;;5071308;28;20953;-71
2021/10/18 06:05:46;;;;;;;0.40;0.20;;;4.80;99.90;;;;;;5070384;28;20387;-72
2021/10/18 06:08:13;;;;;;;0.40;0.20;;;5.00;99.90;;;;;;5071204;28;20791;-71
2021/10/18 06:10:40;;;;;;;0.65;0.65;;;4.90;99.90;;;;;;5070239;28;20380;-72
2021/10/18 06:13:06;;;;;;;0.40;0.30;;;4.90;99.90;;;;;;5073595;28;20392;-72
2021/10/18 06:15:32;;;;;;;0.40;0.20;;;5.10;99.90;;;;;;5079302;28;20474;-72
2021/10/18 06:18:13;;;;;;;1.70;1.00;;;4.80;99.90;;;;;;5080026;28;20386;-72
2021/10/18 06:20:47;;;;;;;0.40;0.30;;;5.00;99.90;;;;;;5078156;28;20458;-72
2021/10/18 06:23:13;;;;;;;0.40;0.20;;;5.00;99.90;;;;;;5070867;28;20380;-72
2021/10/18 06:25:40;;;;;;;0.40;0.20;;;4.80;99.90;;;;;;5070044;28;20764;-72
2021/10/18 06:28:07;;;;;;;0.40;0.20;;;4.60;99.90;;;;;;5070732;28;20380;-72
2021/10/18 06:30:33;;;;;;;0.40;0.20;;;4.70;99.90;;;;;;5083088;28;20405;-72
2021/10/18 06:32:59;;;;;;;0.40;0.30;;;4.80;99.90;;;;;;5090837;28;20742;-72
2021/10/18 06:35:25;;;;;;;1.90;0.60;;;4.90;99.90;;;;;;5091122;28;20469;-72
2021/10/18 06:37:51;;;;;;;0.50;0.40;;;5.10;99.90;;;;;;5090003;28;20386;-72
2021/10/18 06:40:17;;;;;;;0.40;0.20;;;5.40;99.90;;;;;;5091246;28;20416;-72
2021/10/18 06:42:43;;;;;;;0.40;0.20;;;5.40;99.90;;;;;;5090386;28;20375;-72
2021/10/18 06:45:10;;;;;;;0.40;0.40;;;5.50;99.90;;;;;;5090461;28;20393;-72
2021/10/18 06:47:37;;;;;;;0.40;0.20;;;5.40;99.90;;;;;;5089974;28;20381;-72
2021/10/18 06:50:04;;;;;;;0.40;0.20;;;5.30;99.90;;;;;;5090436;28;20378;-72
2021/10/18 06:52:35;;;;;;;0.40;0.30;;;5.20;99.90;;;;;;5090488;28;20405;-72
2021/10/18 06:55:04;;;;;;;0.40;0.20;;;5.40;99.90;;;;;;5090808;28;20508;-72
2021/10/18 06:57:30;;;;;;;0.40;0.20;;;5.60;99.90;;;;;;5090851;28;20416;-72
2021/10/18 06:59:56;;;;;;;0.40;0.20;;;5.50;99.90;;;;;;5089280;28;20874;-72
2021/10/18 07:02:21;;;;;;;0.40;0.20;;;5.60;99.90;;;;;;5090294;28;20401;-72
2021/10/18 07:04:47;;;;;;;0.40;0.20;;;5.60;99.90;;;;;;5087900;28;20469;-71
2021/10/18 07:07:13;;;;;;;0.50;0.50;;;5.60;99.90;;;;;;5087099;28;20475;-72
2021/10/18 07:09:38;;;;;;;0.40;0.20;;;5.70;99.90;;;;;;5089585;28;20424;-72
2021/10/18 07:12:04;;;;;;;0.85;0.47;;;5.80;99.90;;;;;;5090043;28;20389;-72
2021/10/18 07:14:30;;;;;;;0.40;0.40;;;6.00;99.90;;;;;;5090419;28;20386;-72
2021/10/18 07:16:55;;;;;;;0.40;0.20;;;6.00;99.90;;;;;;5090055;28;20473;-72
2021/10/18 07:19:21;;;;;;;0.40;0.20;;;5.90;99.90;;;;;;5090560;28;20398;-72
2021/10/18 07:21:47;;;;;;;0.50;0.47;;;5.60;99.90;;;;;;5089897;28;20386;-72
2021/10/18 07:24:16;;;;;;;0.40;0.20;;;5.70;99.90;;;;;;5091714;28;20374;-71
2021/10/18 07:26:41;;;;;;;0.40;0.40;;;6.00;99.90;;;;;;5093372;28;20784;-72
2021/10/18 07:29:07;;;;;;;0.40;0.30;;;6.20;99.90;;;;;;5094147;28;20373;-72
2021/10/18 07:31:33;;;;;;;0.40;0.20;;;6.30;99.90;;;;;;5093792;28;20427;-72
2021/10/18 07:34:02;;;;;;;0.40;0.20;;;6.10;99.90;;;;;;5093675;28;20407;-72
2021/10/18 07:36:33;;;;;;;0.50;0.50;;;6.00;99.90;;;;;;5093868;28;20711;-72
2021/10/18 07:39:08;;;;;;;0.40;0.20;;;6.20;99.90;;;;;;5091935;28;20812;-71
2021/10/18 07:41:33;;;;;;;0.50;0.28;;;6.40;99.90;;;;;;5093826;28;20795;-72
2021/10/18 07:43:59;;;;;;;0.40;0.20;;;6.40;99.90;;;;;;5093344;28;20424;-71
2021/10/18 07:46:25;;;;;;;0.40;0.20;;;6.30;99.90;;;;;;5093647;28;20374;-72
2021/10/18 07:48:50;;;;;;;0.40;0.20;;;6.10;99.90;;;;;;5093408;28;20740;-72
2021/10/18 07:51:16;;;;;;;0.40;0.20;;;6.10;99.90;;;;;;5093370;28;20382;-72
2021/10/18 07:53:42;;;;;;;1.10;1.00;;;6.40;99.90;;;;;;5092843;28;20823;-72
2021/10/18 07:56:07;;;;;;;0.40;0.20;;;6.80;99.90;;;;;;5093539;28;20517;-72
2021/10/18 07:58:33;;;;;;;0.40;0.20;;;6.50;99.90;;;;;;5093694;28;20493;-72
2021/10/18 08:00:58;;;;;;;0.40;0.40;;;6.60;99.90;;;;;;5091533;28;20929;-72
2021/10/18 08:03:24;;;;;;;0.40;0.20;;;6.60;99.90;;;;;;5093779;28;20414;-72
2021/10/18 08:05:50;;;;;;;0.40;0.20;;;6.80;99.90;;;;;;5092671;28;20410;-72
2021/10/18 08:08:21;;;;;;;1.10;0.52;;;6.70;99.90;;;;;;5092268;28;20385;-72
2021/10/18 08:10:49;;;;;;;0.80;0.80;;;6.80;99.90;;;;;;5092687;28;20374;-72
2021/10/18 08:13:15;;;;;;;0.40;0.20;;;6.70;99.90;;;;;;5093250;28;20379;-72
2021/10/18 08:15:40;;;;;;;0.40;0.20;;;7.00;99.90;;;;;;5092403;28;20554;-72
2021/10/18 08:18:07;;;;;;;0.50;0.47;;;7.30;99.90;;;;;;5092668;28;20406;-72
2021/10/18 08:20:33;;;;;;;0.60;0.60;;;7.50;99.90;;;;;;5091719;28;20396;-72
2021/10/18 08:22:58;;;;;;;0.40;0.20;;;7.70;99.90;;;;;;5092391;28;20473;-72
2021/10/18 08:25:24;;;;;;;0.40;0.30;;;7.90;99.90;;;;;;5091713;28;20421;-72
2021/10/18 08:27:50;;;;;;;0.50;0.40;;;7.60;99.90;;;;;;5092278;28;20402;-72
2021/10/18 08:30:16;;;;;;;0.40;0.40;;;7.50;99.90;;;;;;5092850;28;20370;-72
2021/10/18 08:32:42;;;;;;;0.40;0.20;;;7.70;99.90;;;;;;5092178;28;20430;-72
2021/10/18 08:35:10;;;;;;;0.40;0.20;;;7.50;99.90;;;;;;5092891;28;20451;-73
2021/10/18 08:40:22;;;;;;;0.40;0.20;;;7.40;99.90;;;;;;5092848;28;20393;-72
2021/10/18 08:45:19;;;;;;;0.40;0.20;;;7.60;99.90;;;;;;5092487;28;20409;-73
2021/10/18 08:47:46;;;;;;;0.40;0.20;;;7.60;99.90;;;;;;5091590;28;20410;-72
2021/10/18 08:50:12;;;;;;;0.40;0.20;;;7.70;99.90;;;;;;5092524;28;20378;-72
2021/10/18 08:52:40;;;;;;;0.40;0.20;;;7.80;99.90;;;;;;5092432;28;20404;-72
2021/10/18 08:55:07;;;;;;;0.40;0.20;;;8.00;99.90;;;;;;5092498;28;20374;-72
2021/10/18 08:57:33;;;;;;;0.40;0.30;;;8.00;99.90;;;;;;5092470;28;20466;-73
2021/10/18 08:59:59;;;;;;;0.40;0.20;;;7.80;99.90;;;;;;5091484;28;20405;-72
2021/10/18 09:02:36;;;;;;;0.40;0.30;;;8.00;99.90;;;;;;5092161;28;20851;-72
2021/10/18 09:05:05;;;;;;;0.40;0.20;;;8.00;99.90;;;;;;5091676;28;20421;-72
2021/10/18 09:07:35;;;;;;;0.40;0.20;;;7.90;99.90;;;;;;5092093;28;20377;-72
2021/10/18 09:10:01;;;;;;;0.50;0.50;;;8.20;99.90;;;;;;5091582;28;21053;-72
2021/10/18 09:12:35;;;;;;;0.40;0.20;;;8.40;99.90;;;;;;5091951;28;20465;-72
2021/10/18 09:15:26;;;;;;;0.40;0.20;;;8.50;99.90;;;;;;5091192;28;20642;-72
2021/10/18 09:17:59;;;;;;;0.40;0.20;;;8.20;99.90;;;;;;5091390;28;20378;-72
2021/10/18 09:20:35;;;;;;;0.40;0.20;;;8.40;99.90;;;;;;5091886;28;20394;-72
2021/10/18 09:23:40;;;;;;;0.40;0.20;;;8.00;99.90;;;;;;5091183;28;20386;-72
2021/10/18 09:26:09;;;;;;;0.40;0.20;;;8.30;99.90;;;;;;5028734;28;20772;-72
2021/10/18 09:28:35;;;;;;;0.40;0.20;;;8.30;99.90;;;;;;5081644;28;20390;-72
2021/10/18 09:31:01;;;;;;;2.20;1.10;;;8.60;99.90;;;;;;5091195;28;20469;-72
2021/10/18 09:36:02;;;;;;;0.40;0.20;;;8.40;99.90;;;;;;5091177;28;20393;-72
2021/10/18 09:38:28;;;;;;;0.40;0.20;;;8.70;99.90;;;;;;5091600;28;20413;-72
2021/10/18 09:40:57;;;;;;;0.40;0.20;;;8.70;99.90;;;;;;5090804;28;20374;-72
2021/10/18 09:46:09;;;;;;;0.40;0.20;;;8.90;99.90;;;;;;5090487;28;20385;-72
2021/10/18 10:55:44;;;;;;;0.40;0.20;;;11.20;99.90;;;;;;5090593;28;20413;-71
2021/10/18 10:58:33;;;;;;;0.70;0.70;;;11.50;99.90;;;;;;5091158;28;20377;-71
2021/10/18 11:01:00;;;;;;;0.40;0.20;;;11.30;99.90;;;;;;5094132;28;20461;-71
2021/10/18 11:03:35;;;;;;;0.90;0.43;;;12.10;99.90;;;;;;5094728;28;20443;-71
2021/10/18 11:06:05;;;;;;;0.40;0.20;;;12.50;99.90;;;;;;5094032;28;20471;-71
2021/10/18 11:08:45;;;;;;;0.40;0.20;;;13.30;99.90;;;;;;5094481;28;20417;-71
2021/10/18 11:11:18;;;;;;;0.40;0.30;;;13.00;99.90;;;;;;5093686;28;20465;-71
2021/10/18 11:13:50;;;;;;;0.50;0.40;;;13.50;99.90;;;;;;5094391;28;20937;-71
2021/10/18 11:16:24;;;;;;;0.40;0.20;;;13.70;99.90;;;;;;5094237;28;20720;-71
2021/10/18 11:18:55;;;;;;;0.40;0.30;;;14.50;99.90;;;;;;5093474;28;20500;-71
2021/10/18 11:21:28;;;;;;;0.40;0.20;;;14.30;99.90;;;;;;5092737;28;20386;-71
2021/10/18 11:24:05;;;;;;;0.40;0.20;;;14.60;99.90;;;;;;5094543;28;20882;-71
2021/10/18 11:26:37;;;;;;;0.40;0.20;;;14.80;99.50;;;;;;5083673;28;20469;-71
2021/10/18 11:29:06;;;;;;;0.40;0.20;;;15.30;98.70;;;;;;5099789;28;20404;-71
2021/10/18 11:31:43;;;;;;;0.40;0.20;;;15.20;99.00;;;;;;5097665;28;20386;-72
2021/10/18 11:34:18;;;;;;;0.40;0.20;;;16.20;96.30;;;;;;5099477;28;20475;-72
2021/10/18 11:36:47;;;;;;;0.40;0.30;;;16.30;97.20;;;;;;5106787;28;20436;-72
2021/10/18 11:39:17;;;;;;;0.40;0.30;;;16.00;95.50;;;;;;5103862;28;20400;-71
2021/10/18 11:41:58;;;;;;;0.40;0.20;;;16.20;96.10;;;;;;5113483;28;20867;-71
2021/10/18 11:44:54;;;;;;;0.40;0.30;;;15.90;94.50;;;;;;5107136;28;20775;-71
2021/10/18 11:47:30;;;;;;;0.40;0.20;;;14.60;95.90;;;;;;5102028;28;20484;-71
2021/10/18 11:50:18;;;;;;;0.40;0.20;;;16.50;96.30;;;;;;5095988;28;20403;-71
2021/10/18 11:52:58;;;;;;;0.40;0.20;;;16.70;95.70;;;;;;5103416;28;20413;-72
2021/10/18 11:55:30;;;;;;;0.40;0.20;;;16.70;94.90;;;;;;5108118;28;20385;-72
2021/10/18 11:58:02;;;;;;;0.40;0.20;;;16.90;94.90;;;;;;5095826;28;20385;-71
2021/10/18 12:00:40;;;;;;;0.40;0.20;;;15.30;94.90;;;;;;5106009;28;20393;-72
2021/10/18 12:03:11;;;;;;;0.40;0.20;;;16.30;96.10;;;;;;5098192;28;20425;-72
2021/10/18 12:05:43;;;;;;;0.40;0.30;;;15.10;96.20;;;;;;5107205;28;20436;-72
2021/10/18 12:08:11;;;;;;;0.40;0.20;;;16.80;95.90;;;;;;5093924;28;20389;-72
2021/10/18 12:10:38;;;;;;;0.40;0.30;;;17.10;94.80;;;;;;5074640;28;20378;-72
2021/10/18 12:13:21;;;;;;;0.40;0.30;;;16.70;94.40;;;;;;5083652;28;20390;-72
2021/10/18 12:16:05;;;;;;;0.40;0.40;;;16.10;94.80;;;;;;5082248;28;20398;-72
2021/10/18 12:18:32;;;;;;;0.40;0.30;;;16.80;95.30;;;;;;5078160;28;20886;-71
2021/10/18 12:21:26;;;;;;;0.40;0.30;;;15.40;95.90;;;;;;5072410;28;20894;-71
2021/10/18 12:23:55;;;;;;;0.40;0.20;;;15.60;96.00;;;;;;5074057;28;20960;-71
2021/10/18 12:26:30;;;;;;;0.40;0.30;;;15.20;96.50;;;;;;5077943;28;20402;-71
2021/10/18 12:29:05;;;;;;;0.40;0.30;;;15.60;97.30;;;;;;5078684;28;20378;-72
2021/10/18 12:31:39;;;;;;;0.50;0.40;;;15.50;98.80;;;;;;5076407;28;20394;-71
2021/10/18 12:34:11;;;;;;;0.40;0.20;;;16.40;96.30;;;;;;5078443;28;20390;-71
2021/10/18 12:37:04;;;;;;;0.40;0.30;;;15.80;96.60;;;;;;5079295;28;20920;-71
2021/10/18 12:39:41;;;;;;;0.40;0.20;;;15.70;96.30;;;;;;5078750;28;20865;-72
2021/10/18 12:42:09;;;;;;;0.40;0.20;;;16.70;96.40;;;;;;5093587;28;20401;-72
2021/10/18 12:44:39;;;;;;;0.40;0.20;;;15.80;96.70;;;;;;5111851;28;20737;-72
2021/10/18 12:47:14;;;;;;;1.15;0.57;;;15.90;97.40;;;;;;5090341;28;20383;-70
2021/10/18 12:49:39;;;;;;;0.40;0.30;;;15.90;98.10;;;;;;5090241;28;20419;-71
2021/10/18 12:52:05;;;;;;;0.50;0.50;;;15.70;97.90;;;;;;5089821;28;20720;-70
2021/10/18 12:54:40;;;;;;;0.50;0.50;;;15.50;98.80;;;;;;5090755;28;20378;-72
2021/10/18 12:57:13;;;;;;;0.60;0.60;;;15.70;98.70;;;;;;5090520;28;20382;-73
2021/10/18 12:59:59;;;;;;;0.40;0.30;;;15.70;98.30;;;;;;5091048;28;20412;-73
2021/10/18 13:02:26;;;;;;;0.40;0.30;;;16.00;99.00;;;;;;5074796;28;20890;-72
2021/10/18 13:05:10;;;;;;;0.40;0.20;;;15.80;99.00;;;;;;5101366;28;20394;-72
2021/10/18 13:07:41;;;;;;;0.40;0.30;;;16.20;98.80;;;;;;5091440;28;20382;-70
2021/10/18 13:10:12;;;;;;;0.80;0.80;;;16.00;98.00;;;;;;5090394;28;20855;-71
2021/10/18 13:12:38;;;;;;;0.40;0.20;;;16.00;99.90;;;;;;5081993;28;20876;-73
2021/10/18 13:15:05;;;;;;;0.40;0.20;;;15.90;99.40;;;;;;5070136;28;20425;-72
2021/10/18 13:17:31;;;;;;;0.40;0.30;;;16.10;99.60;;;;;;5070291;28;20386;-72
2021/10/18 13:19:57;;;;;;;0.40;0.20;;;15.70;99.90;;;;;;5068687;28;20408;-70
2021/10/18 13:22:22;;;;;;;0.40;0.30;;;16.00;99.80;;;;;;5068958;28;20392;-71
2021/10/18 13:24:49;;;;;;;0.40;0.20;;;15.60;99.70;;;;;;5070473;28;20440;-72
2021/10/18 13:27:15;;;;;;;0.93;0.73;;;15.40;99.90;;;;;;5069745;28;20673;-72
2021/10/18 13:29:40;;;;;;;0.40;0.20;;;16.10;99.60;;;;;;5070100;28;20383;-71
2021/10/18 13:32:06;;;;;;;0.40;0.30;;;16.20;98.70;;;;;;5069978;28;20407;-72
2021/10/18 13:34:37;;;;;;;0.40;0.30;;;16.20;99.90;;;;;;5070227;28;20380;-72
2021/10/18 13:37:06;;;;;;;1.10;0.70;;;16.60;98.50;;;;;;5069484;28;20841;-72
2021/10/18 13:39:32;;;;;;;0.40;0.20;;;15.90;99.70;;;;;;5070254;28;20407;-71
2021/10/18 13:41:57;;;;;;;0.40;0.20;;;15.70;99.60;;;;;;5069985;28;20375;-71
2021/10/18 13:44:23;;;;;;;0.40;0.20;;;15.40;99.90;;;;;;5069870;28;20384;-72
2021/10/18 13:46:49;;;;;;;0.40;0.20;;;15.60;99.80;;;;;;5088390;28;20382;-72
2021/10/18 13:49:15;;;;;;;0.40;0.20;;;16.40;99.10;;;;;;5089538;28;20385;-72
2021/10/18 13:51:40;;;;;;;0.40;0.20;;;16.20;98.80;;;;;;5089991;28;20489;-73
2021/10/18 13:54:07;;;;;;;0.40;0.30;;;16.40;99.50;;;;;;5089984;28;20456;-72
2021/10/18 13:56:34;;;;;;;0.40;0.20;;;15.90;99.10;;;;;;5090550;28;20413;-72
2021/10/18 13:59:00;;;;;;;0.40;0.20;;;16.30;99.00;;;;;;5089864;28;20827;-72
2021/10/18 14:01:27;;;;;;;0.40;0.20;;;15.90;99.00;;;;;;5090131;28;20390;-72
2021/10/18 14:03:52;;;;;;;1.30;0.47;;;16.20;99.00;;;;;;5089106;28;20402;-72
2021/10/18 14:06:18;;;;;;;0.40;0.30;;;16.40;99.10;;;;;;5070212;28;20380;-72
2021/10/18 14:08:53;;;;;;;0.50;0.50;;;15.70;99.90;;;;;;5069288;28;20384;-74
2021/10/18 14:11:19;;;;;;;0.50;0.40;;;15.40;99.90;;;;;;5081059;28;20390;-72
2021/10/18 14:13:46;;;;;;;0.70;0.70;;;15.10;99.90;;;;;;5078551;28;20408;-72
2021/10/18 14:16:12;;;;;;;0.40;0.20;;;15.10;99.90;;;;;;5076887;28;20463;-71
2021/10/18 14:18:37;;;;;;;0.40;0.20;;;15.20;99.90;;;;;;5076160;28;20554;-71